6.500 kWh

EHAM AMSTERDAM/SCHIPHOL NLD -3 m.
METAR EHAM 181455Z 24022G32KT 9999 FEW030 22/15 Q1011 NOSIG

EHAM AMSTERDAM/SCHIPHOL NLD -3 m.
TAF EHAM 181118Z 1812/1918 23020G30KT 9999 SCT025
BECMG 1816/1819 22012KT
BECMG 1823/1902 19007KT
BECMG 1908/1911 22017KT